Time;durP1;ratioP1;P1;durP2;ratioP2;P2;SDS_P1;SDS_P2;PMS_P1;PMS_P2;Temp;Humidity;BMP_temperature;BMP_pressure;BME280_temperature;BME280_humidity;BME280_pressure;Samples;Min_cycle;Max_cycle;Signal;HPM_P1;HPM_P2
2023/04/12 00:01:57;;;;;;;7.27;2.80;;;11.10;61.20;;;;;;4973109;28;20921;-73
2023/04/12 00:04:27;;;;;;;7.70;2.60;;;11.00;61.30;;;;;;4977149;28;20186;-73
2023/04/12 00:06:53;;;;;;;4.13;2.23;;;10.90;61.90;;;;;;4974913;28;20187;-73
2023/04/12 00:09:19;;;;;;;9.20;2.63;;;10.80;62.90;;;;;;4976880;28;21126;-74
2023/04/12 00:11:45;;;;;;;5.73;2.60;;;10.70;63.80;;;;;;4976450;28;20453;-74
2023/04/12 00:14:10;;;;;;;9.13;2.60;;;10.60;65.00;;;;;;4979617;28;20923;-73
2023/04/12 00:16:37;;;;;;;5.23;2.60;;;10.60;65.80;;;;;;4978199;28;20298;-73
2023/04/12 00:19:03;;;;;;;8.10;2.63;;;10.60;66.40;;;;;;4974236;28;20184;-73
2023/04/12 00:21:29;;;;;;;7.00;2.97;;;10.50;66.90;;;;;;4974939;28;20464;-73
2023/04/12 00:23:55;;;;;;;5.40;2.67;;;10.40;67.50;;;;;;4980550;28;20422;-73
2023/04/12 00:26:21;;;;;;;4.87;2.67;;;10.30;68.00;;;;;;4977839;28;20222;-73
2023/04/12 00:28:47;;;;;;;7.80;2.33;;;10.30;68.50;;;;;;4981225;28;20415;-75
2023/04/12 00:31:12;;;;;;;5.07;2.60;;;10.10;69.70;;;;;;4980629;28;20427;-73
2023/04/12 00:33:38;;;;;;;6.17;2.63;;;10.10;70.40;;;;;;4981630;28;20282;-73
2023/04/12 00:36:04;;;;;;;5.50;2.87;;;9.90;71.60;;;;;;4976531;28;20700;-73
2023/04/12 00:38:30;;;;;;;6.60;3.40;;;9.80;72.60;;;;;;4981915;28;20215;-75
2023/04/12 00:40:55;;;;;;;4.43;2.63;;;9.70;73.00;;;;;;4986213;28;20434;-73
2023/04/12 00:43:21;;;;;;;7.30;2.80;;;9.60;73.50;;;;;;4983810;28;20223;-74
2023/04/12 00:45:48;;;;;;;6.73;2.90;;;9.50;74.50;;;;;;4973847;28;20215;-74
2023/04/12 00:48:15;;;;;;;6.27;2.87;;;9.30;75.90;;;;;;4986284;28;20458;-73
2023/04/12 00:50:43;;;;;;;7.67;3.50;;;9.20;77.40;;;;;;4986855;28;20438;-75
2023/04/12 00:53:12;;;;;;;4.37;3.17;;;9.00;78.40;;;;;;4994561;28;20466;-74
2023/04/12 00:55:41;;;;;;;7.13;3.70;;;8.90;79.50;;;;;;4986394;28;20534;-74
2023/04/12 00:58:07;;;;;;;8.50;3.57;;;8.90;80.30;;;;;;4987866;28;20737;-74
2023/04/12 01:00:33;;;;;;;5.37;3.10;;;8.80;80.80;;;;;;4988939;28;20441;-72
2023/04/12 01:03:01;;;;;;;5.90;3.00;;;8.80;81.40;;;;;;4986014;28;20187;-73
2023/04/12 01:05:27;;;;;;;9.83;3.17;;;8.70;81.90;;;;;;4983432;28;20485;-74
2023/04/12 01:08:07;;;;;;;7.50;2.77;;;8.60;82.40;;;;;;4989230;28;20832;-74
2023/04/12 01:10:47;;;;;;;5.97;2.90;;;8.60;82.80;;;;;;4993630;28;20947;-73
2023/04/12 01:13:21;;;;;;;7.37;2.80;;;8.60;83.30;;;;;;4992828;28;20466;-74
2023/04/12 01:15:57;;;;;;;10.43;3.23;;;8.50;83.70;;;;;;4986228;28;20446;-74
2023/04/12 01:18:27;;;;;;;4.87;2.40;;;8.50;84.00;;;;;;4996002;28;20418;-73
2023/04/12 01:21:02;;;;;;;7.23;2.60;;;8.50;84.10;;;;;;4991210;28;20429;-73
2023/04/12 01:23:39;;;;;;;4.67;2.00;;;8.50;84.10;;;;;;4987401;28;20418;-75
2023/04/12 01:26:14;;;;;;;6.50;3.13;;;8.50;84.30;;;;;;4975953;28;20469;-74
2023/04/12 01:28:42;;;;;;;5.97;2.70;;;8.50;84.40;;;;;;4980288;28;20866;-75
2023/04/12 01:31:09;;;;;;;7.20;2.60;;;8.50;84.70;;;;;;4979813;28;20534;-74
2023/04/12 01:33:39;;;;;;;5.37;2.40;;;8.50;85.20;;;;;;4974871;28;20841;-74
2023/04/12 01:36:19;;;;;;;9.60;3.00;;;8.50;85.30;;;;;;4968250;28;20538;-73
2023/04/12 01:38:45;;;;;;;10.93;3.30;;;8.40;85.70;;;;;;4973898;28;20439;-75
2023/04/12 01:41:11;;;;;;;4.83;2.63;;;8.40;86.20;;;;;;4973118;28;20871;-74
2023/04/12 01:43:44;;;;;;;11.20;3.00;;;8.30;86.60;;;;;;4972976;28;20469;-75
2023/04/12 01:46:13;;;;;;;7.80;2.77;;;8.30;87.00;;;;;;4969517;28;20214;-73
2023/04/12 01:48:40;;;;;;;6.10;2.60;;;8.20;87.40;;;;;;4973334;28;20422;-73
2023/04/12 01:51:09;;;;;;;9.23;2.90;;;8.20;87.80;;;;;;4974671;28;20476;-75
2023/04/12 01:53:53;;;;;;;5.70;2.73;;;8.20;88.40;;;;;;4972590;28;20799;-74
2023/04/12 01:56:21;;;;;;;4.43;2.80;;;8.20;88.60;;;;;;4967732;28;20494;-73
2023/04/12 01:58:49;;;;;;;5.60;2.30;;;8.30;89.00;;;;;;4972085;28;20501;-72
2023/04/12 02:01:17;;;;;;;8.43;3.23;;;8.40;89.30;;;;;;4975616;28;20840;-73
2023/04/12 02:03:48;;;;;;;5.17;2.43;;;8.50;89.20;;;;;;4972529;28;20419;-73
2023/04/12 02:06:14;;;;;;;7.87;3.00;;;8.50;89.50;;;;;;4971782;28;20481;-73
2023/04/12 02:08:40;;;;;;;4.97;2.57;;;8.50;89.60;;;;;;4973054;28;20814;-72
2023/04/12 02:11:09;;;;;;;7.27;3.10;;;8.50;89.30;;;;;;4972236;28;20434;-74
2023/04/12 02:13:35;;;;;;;6.47;3.03;;;8.50;89.50;;;;;;4971869;28;20203;-74
2023/04/12 02:16:01;;;;;;;7.33;2.83;;;8.40;89.60;;;;;;4968470;28;20454;-72
2023/04/12 02:18:28;;;;;;;5.40;3.20;;;8.40;89.70;;;;;;4971950;28;20721;-75
2023/04/12 02:20:54;;;;;;;5.67;3.43;;;8.40;89.90;;;;;;4972650;28;20427;-73
2023/04/12 02:23:20;;;;;;;14.83;3.53;;;8.40;89.90;;;;;;4971868;28;20438;-73
2023/04/12 02:25:46;;;;;;;3.83;2.57;;;8.40;89.90;;;;;;4968902;28;20473;-73
2023/04/12 02:28:12;;;;;;;7.87;3.30;;;8.50;89.70;;;;;;4976069;28;20179;-74
2023/04/12 02:30:40;;;;;;;6.00;2.83;;;8.50;89.70;;;;;;4970486;28;20195;-74
2023/04/12 02:33:06;;;;;;;7.07;2.53;;;8.50;89.50;;;;;;4971653;28;20463;-72
2023/04/12 02:35:32;;;;;;;6.50;2.80;;;8.60;89.60;;;;;;4965519;28;21012;-74
2023/04/12 02:37:57;;;;;;;6.73;2.93;;;8.60;89.50;;;;;;4975697;28;20469;-73
2023/04/12 02:40:23;;;;;;;9.43;3.43;;;8.60;89.30;;;;;;4976509;28;20179;-73
2023/04/12 02:42:48;;;;;;;7.67;3.27;;;8.60;89.30;;;;;;4979949;28;20183;-74
2023/04/12 02:45:14;;;;;;;8.03;4.27;;;8.60;89.20;;;;;;4980051;28;20204;-74
2023/04/12 02:47:40;;;;;;;6.50;3.30;;;8.60;89.20;;;;;;4972337;28;20225;-74
2023/04/12 02:50:06;;;;;;;8.10;3.00;;;8.50;89.50;;;;;;4975933;28;20529;-73
2023/04/12 02:52:32;;;;;;;19.07;7.00;;;8.50;89.70;;;;;;4971887;28;20549;-74
2023/04/12 02:54:58;;;;;;;10.90;5.00;;;8.50;89.90;;;;;;4971492;28;20543;-72
2023/04/12 02:57:24;;;;;;;17.97;5.87;;;8.50;89.90;;;;;;4973289;28;20544;-73
2023/04/12 02:59:52;;;;;;;5.83;3.30;;;8.50;89.90;;;;;;4976686;28;20449;-73
2023/04/12 03:02:19;;;;;;;7.30;3.83;;;8.60;90.10;;;;;;4974370;28;20313;-73
2023/04/12 03:04:45;;;;;;;7.33;3.83;;;8.60;90.30;;;;;;4970454;28;20462;-75
2023/04/12 03:07:12;;;;;;;6.33;3.43;;;8.60;90.40;;;;;;4972648;28;20480;-74
2023/04/12 03:09:37;;;;;;;9.90;3.70;;;8.60;90.40;;;;;;4973741;28;20434;-72
2023/04/12 03:12:03;;;;;;;7.90;3.87;;;8.60;90.40;;;;;;4973270;28;20532;-73
2023/04/12 03:14:29;;;;;;;7.63;3.50;;;8.60;90.50;;;;;;4969864;28;20249;-74
2023/04/12 03:16:55;;;;;;;9.13;4.10;;;8.60;90.60;;;;;;4973050;28;20423;-75
2023/04/12 03:19:20;;;;;;;6.80;4.13;;;8.50;90.70;;;;;;4978314;28;20450;-74
2023/04/12 03:21:46;;;;;;;7.80;4.10;;;8.50;90.70;;;;;;4976903;28;20187;-73
2023/04/12 03:24:12;;;;;;;9.70;4.00;;;8.50;90.80;;;;;;4978726;28;20203;-74
2023/04/12 03:26:38;;;;;;;11.60;4.33;;;8.50;90.80;;;;;;4973250;28;20283;-73
2023/04/12 03:29:04;;;;;;;8.40;4.50;;;8.40;90.80;;;;;;4975654;28;20514;-76
2023/04/12 03:31:30;;;;;;;17.80;3.90;;;8.40;90.90;;;;;;4978115;28;20508;-73
2023/04/12 03:33:56;;;;;;;9.00;4.30;;;8.50;91.00;;;;;;4981528;28;20783;-75
2023/04/12 03:36:22;;;;;;;7.60;4.00;;;8.50;91.00;;;;;;4972089;28;20544;-72
2023/04/12 03:38:47;;;;;;;6.10;4.00;;;8.50;91.20;;;;;;4986106;28;20513;-72
2023/04/12 03:41:14;;;;;;;6.87;3.67;;;8.50;91.00;;;;;;4981118;28;20509;-72
2023/04/12 03:43:41;;;;;;;7.97;4.17;;;8.60;91.20;;;;;;4982608;28;20673;-71
2023/04/12 03:46:07;;;;;;;6.77;3.77;;;8.50;90.90;;;;;;4976019;28;20942;-72
2023/04/12 03:48:33;;;;;;;10.20;4.37;;;8.50;91.00;;;;;;4978063;28;20426;-73
2023/04/12 03:50:59;;;;;;;7.43;3.27;;;8.50;91.20;;;;;;4981470;28;20489;-74
2023/04/12 03:53:30;;;;;;;6.57;3.67;;;8.60;91.20;;;;;;4983247;28;20470;-73
2023/04/12 03:55:56;;;;;;;7.90;3.53;;;8.60;90.80;;;;;;4990291;28;20203;-73
2023/04/12 03:58:22;;;;;;;10.33;3.70;;;8.60;90.80;;;;;;4976703;28;20422;-71
2023/04/12 04:00:48;;;;;;;10.13;3.80;;;8.60;90.80;;;;;;4979281;28;20211;-72
2023/04/12 04:03:14;;;;;;;7.60;4.17;;;8.60;90.70;;;;;;4986967;28;20436;-74
2023/04/12 04:05:39;;;;;;;9.60;3.73;;;8.60;90.60;;;;;;4971754;28;20903;-72
2023/04/12 04:08:06;;;;;;;4.93;3.73;;;8.60;90.40;;;;;;4975932;28;20422;-72
2023/04/12 04:10:32;;;;;;;7.23;4.27;;;8.60;90.30;;;;;;4974637;28;20191;-74
2023/04/12 04:12:58;;;;;;;7.00;4.00;;;8.60;90.30;;;;;;4974695;28;20462;-72
2023/04/12 04:15:26;;;;;;;9.10;4.70;;;8.60;90.30;;;;;;4979611;28;20480;-70
2023/04/12 04:17:52;;;;;;;11.83;4.43;;;8.50;90.20;;;;;;4973950;28;20179;-72
2023/04/12 04:20:19;;;;;;;6.80;4.07;;;8.50;90.40;;;;;;4977216;28;20429;-71
2023/04/12 04:22:46;;;;;;;8.33;3.70;;;8.60;90.60;;;;;;4974167;28;20759;-71
2023/04/12 04:25:13;;;;;;;11.67;3.73;;;8.60;90.70;;;;;;4971720;28;20466;-71
2023/04/12 04:27:43;;;;;;;5.40;3.93;;;8.60;90.70;;;;;;4973941;28;20941;-72
2023/04/12 04:30:10;;;;;;;14.40;4.93;;;8.60;90.90;;;;;;4974385;28;20944;-73
2023/04/12 04:32:39;;;;;;;10.73;4.00;;;8.60;91.00;;;;;;4974341;28;21045;-73
2023/04/12 04:35:05;;;;;;;7.17;4.43;;;8.50;91.20;;;;;;4972040;28;20458;-72
2023/04/12 04:37:34;;;;;;;6.20;4.00;;;8.50;91.20;;;;;;4975452;28;20529;-72
2023/04/12 04:40:00;;;;;;;8.87;4.47;;;8.50;91.30;;;;;;4978567;28;20497;-72
2023/04/12 04:42:28;;;;;;;8.40;4.73;;;8.50;91.40;;;;;;4975990;28;20481;-72
2023/04/12 04:45:03;;;;;;;9.90;4.53;;;8.50;91.40;;;;;;4968501;28;20546;-72
2023/04/12 04:47:29;;;;;;;9.27;4.70;;;8.50;91.50;;;;;;4973140;28;20434;-72
2023/04/12 04:49:56;;;;;;;8.10;3.90;;;8.50;91.50;;;;;;4974438;28;20433;-72
2023/04/12 04:52:22;;;;;;;5.93;4.10;;;8.60;91.50;;;;;;4974049;28;20462;-71
2023/04/12 04:54:48;;;;;;;8.17;4.40;;;8.60;91.50;;;;;;4970692;28;20466;-72
2023/04/12 04:57:13;;;;;;;6.70;3.67;;;8.60;91.50;;;;;;4972720;28;20997;-72
2023/04/12 04:59:39;;;;;;;5.67;3.57;;;8.60;91.60;;;;;;4974741;28;20222;-73
2023/04/12 05:02:04;;;;;;;7.73;4.00;;;8.50;91.50;;;;;;4975696;28;20233;-71
2023/04/12 05:04:30;;;;;;;8.30;4.10;;;8.50;91.60;;;;;;4972234;28;20188;-72
2023/04/12 05:06:56;;;;;;;8.17;4.03;;;8.50;91.50;;;;;;4972394;28;20307;-71
2023/04/12 05:09:21;;;;;;;9.90;4.70;;;8.50;91.50;;;;;;4975671;28;20715;-70
2023/04/12 05:11:47;;;;;;;11.67;5.63;;;8.50;91.60;;;;;;4976224;28;20733;-72
2023/04/12 05:14:12;;;;;;;7.43;4.60;;;8.50;91.50;;;;;;4973895;28;20187;-73
2023/04/12 05:16:38;;;;;;;8.80;4.90;;;8.50;91.50;;;;;;4971832;28;20239;-73
2023/04/12 05:19:04;;;;;;;7.30;4.30;;;8.50;91.60;;;;;;4979893;28;20667;-72
2023/04/12 05:21:29;;;;;;;7.30;3.87;;;8.50;91.70;;;;;;4975361;28;20314;-73
2023/04/12 05:23:55;;;;;;;11.10;4.50;;;8.50;91.70;;;;;;4973135;28;20186;-71
2023/04/12 05:26:21;;;;;;;8.17;3.73;;;8.50;91.60;;;;;;4970753;28;20469;-72
2023/04/12 05:28:46;;;;;;;8.97;4.80;;;8.50;91.70;;;;;;4973204;28;20200;-72
2023/04/12 05:31:12;;;;;;;7.80;4.30;;;8.60;91.80;;;;;;4972988;28;20266;-72
2023/04/12 05:33:38;;;;;;;8.40;4.57;;;8.50;91.80;;;;;;4981064;28;20223;-72
2023/04/12 05:36:04;;;;;;;9.63;5.63;;;8.60;91.90;;;;;;4969604;28;20570;-72
2023/04/12 05:38:29;;;;;;;8.70;4.17;;;8.60;91.90;;;;;;4973748;28;20881;-72
2023/04/12 05:40:55;;;;;;;9.20;4.63;;;8.60;91.80;;;;;;4975073;28;20525;-74
2023/04/12 05:43:21;;;;;;;7.17;4.23;;;8.60;91.80;;;;;;4972438;28;20618;-70
2023/04/12 05:45:46;;;;;;;12.43;5.60;;;8.60;91.70;;;;;;4971507;28;20238;-73
2023/04/12 05:48:12;;;;;;;7.30;4.30;;;8.60;91.70;;;;;;4974056;28;20219;-72
2023/04/12 05:50:38;;;;;;;9.33;4.20;;;8.60;91.80;;;;;;4973028;28;20515;-73
2023/04/12 05:53:03;;;;;;;7.03;3.90;;;8.60;91.60;;;;;;4973161;28;20458;-72
2023/04/12 05:55:29;;;;;;;5.63;4.10;;;8.70;91.60;;;;;;4967599;28;20509;-72
2023/04/12 05:57:56;;;;;;;8.63;4.30;;;8.60;91.60;;;;;;4973453;28;20336;-72
2023/04/12 06:00:22;;;;;;;7.90;4.70;;;8.70;91.60;;;;;;4981492;28;20171;-72
2023/04/12 06:02:49;;;;;;;6.80;4.33;;;8.70;91.50;;;;;;4984244;28;20422;-72
2023/04/12 06:05:16;;;;;;;11.20;4.77;;;8.70;91.60;;;;;;4991948;28;20463;-71
2023/04/12 06:07:46;;;;;;;5.50;4.10;;;8.70;91.60;;;;;;4998601;28;20426;-72
2023/04/12 06:10:14;;;;;;;8.57;4.23;;;8.70;91.50;;;;;;4989737;28;20430;-73
2023/04/12 06:12:39;;;;;;;10.10;4.90;;;8.70;91.50;;;;;;4992997;28;20469;-73
2023/04/12 06:15:06;;;;;;;10.20;4.63;;;8.70;91.40;;;;;;4989491;28;20907;-72
2023/04/12 06:17:31;;;;;;;11.43;3.90;;;8.80;91.50;;;;;;4985759;28;20183;-71
2023/04/12 06:19:57;;;;;;;5.40;3.17;;;8.80;91.40;;;;;;4979888;28;20445;-72
2023/04/12 06:22:23;;;;;;;9.50;4.83;;;8.80;91.40;;;;;;4989064;28;20190;-72
2023/04/12 06:24:48;;;;;;;11.27;4.00;;;8.80;91.40;;;;;;4976159;28;20203;-73
2023/04/12 06:27:14;;;;;;;6.03;3.43;;;8.80;91.50;;;;;;4977969;28;20246;-73
2023/04/12 06:29:40;;;;;;;5.40;3.60;;;8.80;91.40;;;;;;4977629;28;20195;-72
2023/04/12 06:32:05;;;;;;;7.70;3.77;;;8.80;91.30;;;;;;4978715;28;20406;-72
2023/04/12 06:34:31;;;;;;;9.40;4.23;;;8.80;91.40;;;;;;4974223;28;20198;-73
2023/04/12 06:36:56;;;;;;;4.97;3.57;;;8.90;91.50;;;;;;4971766;28;20227;-72
2023/04/12 06:39:22;;;;;;;7.23;4.03;;;9.00;91.40;;;;;;4975559;28;20191;-71
2023/04/12 06:41:49;;;;;;;6.60;4.00;;;9.00;91.40;;;;;;4975517;28;20191;-73
2023/04/12 06:44:15;;;;;;;6.10;3.47;;;9.00;91.20;;;;;;4973620;28;20187;-72
2023/04/12 06:46:41;;;;;;;6.10;3.00;;;9.10;91.20;;;;;;4969873;28;20465;-73
2023/04/12 06:49:06;;;;;;;6.60;3.47;;;9.20;91.10;;;;;;4971230;28;20434;-72
2023/04/12 06:51:34;;;;;;;5.20;3.23;;;9.20;91.00;;;;;;4978467;28;20422;-71
2023/04/12 06:54:00;;;;;;;5.70;3.17;;;9.30;90.80;;;;;;4975834;28;20211;-73
2023/04/12 06:56:25;;;;;;;4.27;3.10;;;9.40;90.80;;;;;;4969435;28;20524;-72
2023/04/12 06:58:51;;;;;;;8.77;4.37;;;9.40;90.30;;;;;;4973929;28;20190;-73
2023/04/12 07:01:16;;;;;;;5.47;3.47;;;9.40;90.30;;;;;;4975401;28;20263;-72
2023/04/12 07:03:42;;;;;;;5.63;3.47;;;9.30;90.10;;;;;;4973819;28;20191;-73
2023/04/12 07:06:07;;;;;;;6.80;3.30;;;9.40;90.30;;;;;;4971309;28;20211;-73
2023/04/12 07:08:34;;;;;;;6.23;3.70;;;9.40;90.20;;;;;;4973634;28;20191;-71
2023/04/12 07:11:01;;;;;;;5.33;3.10;;;9.40;90.20;;;;;;4975240;28;20270;-73
2023/04/12 07:13:26;;;;;;;8.00;2.70;;;9.50;90.40;;;;;;4975369;28;20501;-72
2023/04/12 07:15:53;;;;;;;6.33;3.27;;;9.60;90.10;;;;;;4974991;28;20863;-73
2023/04/12 07:18:19;;;;;;;5.30;4.20;;;9.60;89.90;;;;;;4978050;28;20218;-72
2023/04/12 07:20:51;;;;;;;8.93;3.63;;;9.60;89.90;;;;;;4979144;28;20435;-72
2023/04/12 07:23:17;;;;;;;5.13;3.33;;;9.60;90.10;;;;;;4984722;28;20422;-72
2023/04/12 07:25:43;;;;;;;5.50;3.40;;;9.60;89.70;;;;;;4978189;28;20832;-73
2023/04/12 07:28:08;;;;;;;5.00;3.47;;;9.60;90.00;;;;;;4979041;28;20187;-72
2023/04/12 07:30:34;;;;;;;7.23;3.60;;;9.60;90.00;;;;;;4978590;28;20202;-74
2023/04/12 07:33:04;;;;;;;8.00;3.80;;;9.60;90.00;;;;;;4976442;28;20210;-72
2023/04/12 07:35:32;;;;;;;4.37;2.90;;;9.50;90.00;;;;;;4975489;28;20681;-73
2023/04/12 07:37:58;;;;;;;6.50;2.80;;;9.60;90.10;;;;;;4975131;28;20881;-73
2023/04/12 07:40:24;;;;;;;3.27;2.20;;;9.70;90.20;;;;;;4975340;28;20430;-73
2023/04/12 07:42:49;;;;;;;3.60;2.47;;;9.70;89.50;;;;;;4975280;28;20253;-72
2023/04/12 07:45:15;;;;;;;5.20;2.90;;;9.80;88.60;;;;;;4969544;28;20587;-74
2023/04/12 07:47:41;;;;;;;5.63;2.30;;;9.90;87.40;;;;;;4974965;28;20187;-73
2023/04/12 07:50:07;;;;;;;4.47;3.27;;;10.00;87.00;;;;;;4977247;28;20434;-74
2023/04/12 07:52:33;;;;;;;4.10;3.10;;;10.10;87.40;;;;;;4976466;28;20929;-72
2023/04/12 07:54:58;;;;;;;6.30;3.20;;;10.20;87.80;;;;;;4970467;28;20467;-74
2023/04/12 07:57:25;;;;;;;3.57;2.43;;;10.20;87.70;;;;;;4975332;28;20253;-74
2023/04/12 07:59:51;;;;;;;7.20;2.60;;;10.20;87.40;;;;;;4977182;28;20183;-73
2023/04/12 08:02:23;;;;;;;4.50;3.00;;;10.30;87.30;;;;;;4976083;28;20505;-73
2023/04/12 08:04:50;;;;;;;7.33;5.23;;;10.40;87.40;;;;;;4967496;28;20219;-73
2023/04/12 08:07:15;;;;;;;3.30;2.30;;;10.40;87.30;;;;;;4976693;28;20505;-74
2023/04/12 08:09:41;;;;;;;5.33;3.03;;;10.40;86.90;;;;;;4975531;28;20538;-73
2023/04/12 08:12:07;;;;;;;3.80;2.43;;;10.50;87.30;;;;;;4974646;28;20211;-72
2023/04/12 08:14:32;;;;;;;4.93;3.37;;;10.50;87.30;;;;;;4973646;28;20729;-73
2023/04/12 08:16:58;;;;;;;3.17;2.10;;;10.50;87.00;;;;;;4978290;28;20484;-72
2023/04/12 08:19:24;;;;;;;7.10;3.07;;;10.50;87.00;;;;;;4978544;28;20217;-73
2023/04/12 08:21:49;;;;;;;3.50;2.10;;;10.50;87.10;;;;;;4974862;28;20187;-72
2023/04/12 08:24:15;;;;;;;7.43;2.80;;;10.50;87.00;;;;;;4974290;28;20179;-73
2023/04/12 08:26:40;;;;;;;3.37;1.80;;;10.50;87.10;;;;;;4967825;28;20234;-73
2023/04/12 08:29:06;;;;;;;4.30;2.10;;;10.50;86.50;;;;;;4975870;28;20531;-73
2023/04/12 08:31:33;;;;;;;3.33;1.93;;;10.50;86.60;;;;;;4974179;28;20200;-73
2023/04/12 08:33:58;;;;;;;3.30;2.17;;;10.60;86.80;;;;;;4974428;28;20214;-73
2023/04/12 08:36:26;;;;;;;5.37;4.00;;;10.60;85.70;;;;;;4968115;28;20462;-73
2023/04/12 08:38:54;;;;;;;9.50;4.60;;;10.70;85.60;;;;;;4979827;28;20283;-72
2023/04/12 08:41:20;;;;;;;5.30;2.50;;;10.80;85.70;;;;;;4977882;28;20789;-73
2023/04/12 08:43:46;;;;;;;3.50;2.20;;;10.80;85.50;;;;;;4974587;28;20521;-72
2023/04/12 08:46:15;;;;;;;4.93;2.10;;;10.90;85.30;;;;;;4970470;28;20821;-73
2023/04/12 08:48:46;;;;;;;2.90;2.10;;;10.90;84.70;;;;;;4974669;28;20929;-73
2023/04/12 08:51:16;;;;;;;5.03;2.53;;;10.90;85.00;;;;;;4970985;28;20959;-73
2023/04/12 08:53:43;;;;;;;8.07;2.27;;;11.00;85.30;;;;;;4973962;28;20589;-72
2023/04/12 08:56:10;;;;;;;4.47;2.70;;;11.10;85.20;;;;;;4970128;28;20836;-73
2023/04/12 08:58:43;;;;;;;3.40;2.10;;;11.20;84.60;;;;;;4973989;28;20663;-74
2023/04/12 09:01:14;;;;;;;2.87;1.80;;;11.20;84.60;;;;;;4976574;28;20439;-73
2023/04/12 09:03:41;;;;;;;3.03;2.27;;;11.30;84.30;;;;;;4972228;28;21008;-72
2023/04/12 09:06:06;;;;;;;4.40;2.70;;;11.10;84.00;;;;;;4968763;28;20837;-73
2023/04/12 09:08:33;;;;;;;4.37;2.17;;;11.20;83.70;;;;;;4974181;28;20433;-73
2023/04/12 09:10:58;;;;;;;4.23;2.37;;;11.20;83.60;;;;;;4978661;28;20423;-72
2023/04/12 09:13:35;;;;;;;2.80;2.30;;;11.20;83.80;;;;;;4983334;28;20462;-72
2023/04/12 09:16:01;;;;;;;3.97;2.63;;;11.20;83.70;;;;;;4976734;28;20309;-73
2023/04/12 09:18:27;;;;;;;4.93;2.57;;;11.20;84.10;;;;;;4975201;28;20430;-72
2023/04/12 09:21:07;;;;;;;3.70;2.30;;;11.20;84.60;;;;;;4975543;28;20426;-72
2023/04/12 09:23:35;;;;;;;5.87;3.53;;;11.20;85.20;;;;;;4974713;28;20430;-72
2023/04/12 09:26:00;;;;;;;6.13;2.10;;;11.40;85.20;;;;;;4971148;28;20509;-73
2023/04/12 09:28:27;;;;;;;2.90;2.33;;;11.40;84.70;;;;;;4974335;28;20431;-73
2023/04/12 09:30:54;;;;;;;5.37;2.93;;;11.50;84.30;;;;;;4974477;28;20183;-73
2023/04/12 09:33:22;;;;;;;5.10;2.50;;;11.60;84.70;;;;;;4973295;28;20496;-74
2023/04/12 09:35:48;;;;;;;7.60;2.70;;;11.80;84.70;;;;;;4971634;28;20465;-73
2023/04/12 09:38:15;;;;;;;5.50;2.47;;;11.80;84.10;;;;;;4969096;28;20434;-73
2023/04/12 09:40:40;;;;;;;4.63;2.77;;;11.90;84.10;;;;;;4973414;28;20430;-73
2023/04/12 09:43:07;;;;;;;4.33;2.47;;;12.00;83.60;;;;;;4975046;28;20803;-73
2023/04/12 09:45:39;;;;;;;4.33;2.63;;;11.90;82.50;;;;;;4963886;28;20298;-73
2023/04/12 09:48:06;;;;;;;4.20;2.37;;;11.90;83.30;;;;;;4972803;28;21151;-75
2023/04/12 09:50:32;;;;;;;4.50;2.90;;;12.00;83.10;;;;;;4972466;28;20433;-74
2023/04/12 09:53:02;;;;;;;6.30;2.63;;;12.00;83.10;;;;;;4972447;28;20478;-74
2023/04/12 09:55:30;;;;;;;9.27;3.30;;;12.00;83.30;;;;;;4966949;28;20469;-74
2023/04/12 09:58:00;;;;;;;9.90;2.87;;;12.00;83.30;;;;;;4972346;28;20423;-73
2023/04/12 10:00:26;;;;;;;9.33;2.73;;;11.90;82.70;;;;;;4972163;28;20433;-73
2023/04/12 10:02:54;;;;;;;4.90;2.60;;;12.00;82.50;;;;;;4976096;28;20465;-73
2023/04/12 10:05:24;;;;;;;6.43;2.73;;;12.00;82.80;;;;;;4966291;28;20519;-73
2023/04/12 10:07:50;;;;;;;9.00;2.90;;;12.10;82.10;;;;;;4972201;28;20437;-74
2023/04/12 10:10:17;;;;;;;5.70;2.93;;;12.30;82.10;;;;;;4972457;28;20461;-74
2023/04/12 10:12:45;;;;;;;8.80;2.50;;;12.40;81.50;;;;;;4972120;28;20495;-74
2023/04/12 10:15:12;;;;;;;7.93;2.43;;;12.50;80.50;;;;;;4970471;28;20465;-73
2023/04/12 10:17:53;;;;;;;8.40;3.70;;;12.60;80.30;;;;;;4973767;28;20473;-75
2023/04/12 10:20:21;;;;;;;7.23;3.50;;;12.70;79.20;;;;;;4972269;28;20442;-74
2023/04/12 10:22:49;;;;;;;4.70;2.57;;;12.90;79.50;;;;;;4969629;28;20414;-75
2023/04/12 10:25:22;;;;;;;6.37;2.07;;;12.90;79.00;;;;;;4969816;28;20454;-74
2023/04/12 10:27:48;;;;;;;7.30;2.83;;;13.00;78.40;;;;;;4972078;28;20419;-73
2023/04/12 10:30:27;;;;;;;2.33;1.93;;;13.00;78.60;;;;;;4972179;28;20423;-75
2023/04/12 10:33:02;;;;;;;4.40;2.50;;;13.00;79.00;;;;;;4974128;28;20557;-74
2023/04/12 10:35:29;;;;;;;4.00;2.40;;;13.00;79.50;;;;;;4971609;28;20494;-75
2023/04/12 10:38:04;;;;;;;5.47;2.70;;;13.20;78.60;;;;;;4983509;28;20438;-75
2023/04/12 10:40:32;;;;;;;4.20;2.33;;;13.20;77.60;;;;;;4972817;28;20427;-74
2023/04/12 10:43:23;;;;;;;3.77;2.50;;;13.40;77.60;;;;;;4976354;28;20426;-73
2023/04/12 10:45:49;;;;;;;4.50;2.10;;;13.50;77.10;;;;;;4965607;28;20462;-74
2023/04/12 10:48:51;;;;;;;4.80;2.50;;;13.60;76.70;;;;;;4971761;28;20453;-74
2023/04/12 10:51:24;;;;;;;3.97;2.37;;;13.80;75.80;;;;;;4968076;28;20433;-75
2023/04/12 10:53:50;;;;;;;5.70;3.17;;;13.80;75.70;;;;;;4973625;28;20474;-75
2023/04/12 10:56:31;;;;;;;2.40;2.10;;;13.70;75.70;;;;;;4965343;28;20734;-74
2023/04/12 10:59:01;;;;;;;4.97;3.27;;;13.60;75.50;;;;;;4974055;28;20422;-75
2023/04/12 11:01:29;;;;;;;6.40;2.00;;;13.60;75.80;;;;;;4975170;28;20427;-75
2023/04/12 11:04:06;;;;;;;7.47;2.37;;;13.80;75.40;;;;;;4973646;28;20434;-73
2023/04/12 11:06:55;;;;;;;3.50;1.90;;;13.80;74.50;;;;;;4969395;28;20465;-74
2023/04/12 11:09:26;;;;;;;8.87;2.40;;;13.80;74.20;;;;;;4971930;28;20502;-74
2023/04/12 11:12:04;;;;;;;7.43;2.10;;;13.80;74.30;;;;;;4975192;28;20419;-74
2023/04/12 11:14:37;;;;;;;2.60;1.80;;;13.90;74.20;;;;;;4978620;28;20430;-73
2023/04/12 11:17:12;;;;;;;4.63;1.83;;;14.10;73.20;;;;;;4974831;28;21083;-73
2023/04/12 11:19:40;;;;;;;4.97;2.50;;;14.10;73.60;;;;;;4974254;28;20422;-73
2023/04/12 11:22:09;;;;;;;3.10;1.97;;;14.20;73.50;;;;;;4970500;28;20918;-75
2023/04/12 11:24:39;;;;;;;2.90;1.53;;;14.20;73.00;;;;;;4976908;28;20824;-73
2023/04/12 11:27:05;;;;;;;10.60;1.93;;;14.20;72.90;;;;;;4972391;28;20423;-72
2023/04/12 11:29:34;;;;;;;2.50;1.30;;;14.20;72.60;;;;;;4971335;28;20419;-74
2023/04/12 11:32:02;;;;;;;4.40;2.13;;;14.20;72.40;;;;;;4971034;28;20499;-74
2023/04/12 11:34:32;;;;;;;2.43;1.27;;;14.30;73.00;;;;;;4970077;28;20431;-74
2023/04/12 11:36:58;;;;;;;2.30;1.53;;;14.40;70.20;;;;;;4972139;28;20430;-75
2023/04/12 11:39:29;;;;;;;3.23;1.90;;;14.20;71.60;;;;;;4974088;28;20420;-74
2023/04/12 11:41:55;;;;;;;1.93;1.63;;;14.10;71.80;;;;;;4977727;28;20185;-75
2023/04/12 11:44:21;;;;;;;2.60;1.50;;;14.20;72.30;;;;;;4975695;28;20411;-73
2023/04/12 11:46:47;;;;;;;2.20;1.50;;;14.50;71.70;;;;;;4971323;28;20812;-73
2023/04/12 11:49:18;;;;;;;2.10;1.60;;;14.50;70.50;;;;;;4974116;28;20438;-75
2023/04/12 11:51:44;;;;;;;6.80;1.80;;;14.40;70.20;;;;;;4981206;28;20425;-75
2023/04/12 11:54:11;;;;;;;4.63;1.87;;;14.40;70.50;;;;;;4972526;28;20472;-73
2023/04/12 11:56:37;;;;;;;3.50;1.70;;;14.50;70.70;;;;;;4971327;28;20463;-74
2023/04/12 11:59:03;;;;;;;3.10;1.60;;;14.60;70.10;;;;;;4976115;28;20797;-72
2023/04/12 12:01:30;;;;;;;5.03;1.70;;;14.50;70.20;;;;;;4975718;28;20450;-71
2023/04/12 12:03:56;;;;;;;2.97;1.63;;;14.70;70.70;;;;;;4979305;28;20434;-72
2023/04/12 12:06:23;;;;;;;3.20;1.57;;;14.90;69.80;;;;;;4975326;28;20464;-71
2023/04/12 12:08:50;;;;;;;3.17;1.30;;;15.00;69.10;;;;;;4974963;28;20537;-74
2023/04/12 12:11:17;;;;;;;1.70;1.30;;;14.90;69.20;;;;;;4982789;28;20470;-73
2023/04/12 12:13:50;;;;;;;5.13;1.70;;;14.90;68.90;;;;;;4974907;28;20477;-75
2023/04/12 12:16:17;;;;;;;2.43;1.17;;;14.90;68.80;;;;;;4980723;28;20462;-74
2023/04/12 12:18:44;;;;;;;2.23;1.20;;;14.80;68.90;;;;;;4976889;28;20420;-73
2023/04/12 12:21:12;;;;;;;2.57;1.30;;;14.80;69.20;;;;;;4986552;28;20447;-73
2023/04/12 12:23:38;;;;;;;3.10;1.47;;;14.90;68.60;;;;;;4975393;28;21280;-73
2023/04/12 12:26:07;;;;;;;1.87;1.33;;;14.90;68.60;;;;;;4974288;28;20470;-73
2023/04/12 12:28:37;;;;;;;2.23;1.30;;;15.10;68.30;;;;;;4975133;28;20423;-73
2023/04/12 12:31:09;;;;;;;2.00;1.20;;;15.10;68.20;;;;;;4980481;28;20420;-74
2023/04/12 12:33:41;;;;;;;1.87;1.20;;;15.10;67.70;;;;;;4978804;28;20816;-72
2023/04/12 12:36:07;;;;;;;2.57;1.33;;;15.10;68.20;;;;;;4972455;28;20463;-74
2023/04/12 12:38:41;;;;;;;2.20;1.50;;;15.10;68.50;;;;;;4981397;28;20446;-74
2023/04/12 12:41:16;;;;;;;2.20;1.10;;;15.10;68.30;;;;;;4976520;28;20435;-73
2023/04/12 12:43:50;;;;;;;5.27;1.53;;;15.10;67.90;;;;;;4977631;28;20522;-74
2023/04/12 12:46:17;;;;;;;2.10;1.60;;;15.40;67.60;;;;;;4971416;28;20521;-72
2023/04/12 12:48:44;;;;;;;2.97;1.30;;;15.80;67.50;;;;;;4984649;28;20432;-73
2023/04/12 12:51:11;;;;;;;2.57;1.30;;;16.10;67.20;;;;;;4978752;28;20445;-72
2023/04/12 12:53:39;;;;;;;2.17;1.30;;;16.10;66.70;;;;;;4974812;28;20503;-74
2023/04/12 12:56:06;;;;;;;3.67;1.20;;;16.40;66.40;;;;;;4969533;28;20453;-74